createdAt,value
2022-08-29T00:03:36.615Z,18.50
2022-08-29T00:08:40.131Z,18.53
2022-08-29T00:13:43.542Z,18.47
2022-08-29T00:18:46.957Z,18.40
2022-08-29T00:23:50.576Z,18.36
2022-08-29T00:28:54.089Z,18.34
2022-08-29T00:33:58.124Z,18.37
2022-08-29T00:39:01.538Z,18.32
2022-08-29T00:44:05.309Z,18.31
2022-08-29T00:49:11.391Z,18.30
2022-08-29T00:54:15.971Z,18.27
2022-08-29T00:59:26.044Z,18.32
2022-08-29T01:04:33.036Z,18.27
2022-08-29T01:09:38.834Z,18.22
2022-08-29T01:15:05.259Z,18.18
2022-08-29T01:20:25.467Z,18.13
2022-08-29T01:25:35.330Z,18.15
2022-08-29T01:31:05.273Z,18.13
2022-08-29T01:36:12.018Z,18.13
2022-08-29T01:41:18.122Z,18.14
2022-08-29T01:46:28.818Z,18.14
2022-08-29T01:51:32.539Z,18.15
2022-08-29T01:56:40.047Z,18.12
2022-08-29T02:02:06.358Z,18.10
2022-08-29T02:07:12.735Z,18.12
2022-08-29T02:12:16.914Z,18.15
2022-08-29T02:17:20.323Z,18.19
2022-08-29T02:22:23.636Z,18.22
2022-08-29T02:27:26.947Z,18.23
2022-08-29T02:32:30.667Z,18.25
2022-08-29T02:37:33.874Z,18.25
2022-08-29T02:42:37.189Z,18.22
2022-08-29T02:47:41.173Z,18.19
2022-08-29T02:52:44.831Z,18.15
2022-08-29T02:57:48.448Z,18.09
2022-08-29T03:02:53.167Z,18.06
2022-08-29T03:07:58.131Z,18.02
2022-08-29T03:13:01.760Z,18.04
2022-08-29T03:18:05.890Z,18.07
2022-08-29T03:23:10.636Z,18.08
2022-08-29T03:28:14.289Z,18.02
2022-08-29T03:33:18.384Z,18.01
2022-08-29T03:38:23.128Z,17.96
2022-08-29T03:43:26.544Z,17.90
2022-08-29T03:48:29.852Z,17.86
2022-08-29T03:53:33.879Z,17.85
2022-08-29T03:58:38.420Z,17.85
2022-08-29T04:03:41.731Z,17.85
2022-08-29T04:08:47.655Z,17.89
2022-08-29T04:13:53.272Z,17.95
2022-08-29T04:18:56.578Z,17.91
2022-08-29T04:23:59.995Z,17.93
2022-08-29T04:29:04.226Z,17.94
2022-08-29T04:34:09.687Z,17.97
2022-08-29T04:39:13.815Z,18.00
2022-08-29T04:44:17.125Z,18.06
2022-08-29T04:49:21.972Z,18.08
2022-08-29T04:54:25.694Z,18.10
2022-08-29T04:59:29.413Z,18.12
2022-08-29T05:04:32.624Z,18.12
2022-08-29T05:09:35.936Z,18.12
2022-08-29T05:14:40.376Z,18.10
2022-08-29T05:19:44.978Z,18.13
2022-08-29T05:24:50.068Z,18.10
2022-08-29T05:29:54.249Z,18.07
2022-08-29T05:34:59.348Z,18.02
2022-08-29T05:40:03.734Z,17.98
2022-08-29T05:45:08.171Z,17.96
2022-08-29T05:50:12.250Z,17.98
2022-08-29T05:55:15.871Z,17.97
2022-08-29T06:00:19.793Z,17.97
2022-08-29T06:05:23.104Z,17.99
2022-08-29T06:10:26.620Z,18.05
2022-08-29T06:15:30.267Z,18.06
2022-08-29T06:20:33.959Z,18.03
2022-08-29T06:25:40.128Z,17.99
2022-08-29T06:30:44.013Z,17.93
2022-08-29T06:35:47.475Z,17.90
2022-08-29T06:40:50.993Z,17.89
2022-08-29T06:45:54.635Z,17.85
2022-08-29T06:51:00.684Z,17.84
2022-08-29T06:56:06.449Z,17.88
2022-08-29T07:01:17.699Z,17.93
2022-08-29T07:06:21.783Z,18.05
2022-08-29T07:11:27.243Z,18.14
2022-08-29T07:16:32.509Z,18.15
2022-08-29T07:21:36.627Z,18.23
2022-08-29T07:26:43.475Z,18.27
2022-08-29T07:31:47.808Z,18.29
2022-08-29T07:36:51.267Z,18.35
2022-08-29T07:41:54.636Z,18.40
2022-08-29T07:46:59.994Z,18.36
2022-08-29T07:52:03.761Z,18.33
2022-08-29T07:57:06.969Z,18.37
2022-08-29T08:02:10.770Z,18.40
2022-08-29T08:07:14.618Z,18.38
2022-08-29T08:12:18.341Z,18.37
2022-08-29T08:17:22.262Z,18.41
2022-08-29T08:22:25.675Z,18.39
2022-08-29T08:27:29.294Z,18.36
2022-08-29T08:32:33.629Z,18.40
2022-08-29T08:37:40.527Z,18.73
2022-08-29T08:42:46.219Z,19.15
2022-08-29T08:48:13.975Z,19.55
2022-08-29T08:53:35.206Z,19.92
2022-08-29T08:58:54.593Z,20.29
2022-08-29T09:04:17.155Z,20.58
2022-08-29T09:09:32.860Z,20.80
2022-08-29T09:15:04.537Z,21.06
2022-08-29T09:20:15.524Z,21.05
2022-08-29T09:25:19.347Z,20.94
2022-08-29T09:30:26.548Z,20.95
2022-08-29T09:35:37.849Z,21.01
2022-08-29T09:40:55.902Z,21.02
2022-08-29T09:46:03.924Z,21.11
2022-08-29T09:51:15.939Z,21.20
2022-08-29T09:56:26.734Z,21.20
2022-08-29T10:01:32.663Z,21.04
2022-08-29T10:06:46.224Z,21.26
2022-08-29T10:12:00.790Z,21.64
2022-08-29T10:17:33.317Z,21.81
2022-08-29T10:22:42.574Z,21.90
2022-08-29T10:28:07.094Z,22.17
2022-08-29T10:33:16.623Z,22.47
2022-08-29T10:38:47.492Z,22.24
2022-08-29T10:43:50.804Z,21.84
2022-08-29T10:49:20.737Z,21.67
2022-08-29T10:54:53.339Z,21.48
2022-08-29T11:00:10.652Z,21.41
2022-08-29T11:05:25.560Z,21.70
2022-08-29T11:10:33.742Z,22.01
2022-08-29T11:15:43.135Z,22.00
2022-08-29T11:20:52.283Z,21.99
2022-08-29T11:26:02.466Z,22.10
2022-08-29T11:31:44.535Z,22.34
2022-08-29T11:36:47.887Z,22.43
2022-08-29T11:41:58.327Z,22.60
2022-08-29T11:47:22.464Z,22.94
2022-08-29T11:52:27.470Z,23.13
2022-08-29T11:57:31.645Z,23.32
2022-08-29T12:02:39.561Z,23.31
2022-08-29T12:08:03.061Z,23.16
2022-08-29T12:13:42.506Z,23.35
2022-08-29T12:18:49.065Z,23.54
2022-08-29T12:23:52.454Z,23.50
2022-08-29T12:29:00.887Z,23.76
2022-08-29T12:34:07.216Z,24.06
2022-08-29T12:39:27.117Z,24.30
2022-08-29T12:44:48.947Z,24.07
2022-08-29T12:49:57.409Z,23.77
2022-08-29T12:55:28.823Z,23.74
2022-08-29T13:00:34.476Z,23.78
2022-08-29T13:05:41.528Z,23.98
2022-08-29T13:11:13.309Z,24.26
2022-08-29T13:16:30.299Z,24.56
2022-08-29T13:21:34.368Z,24.75
2022-08-29T13:26:50.433Z,24.61
2022-08-29T13:32:32.803Z,24.62
2022-08-29T13:37:39.903Z,24.97
2022-08-29T13:42:45.979Z,25.42
2022-08-29T13:48:02.704Z,25.53
2022-08-29T13:53:06.013Z,25.62
2022-08-29T13:58:11.732Z,25.96
2022-08-29T14:03:18.503Z,26.12
2022-08-29T14:08:23.758Z,26.20
2022-08-29T14:13:28.371Z,26.07
2022-08-29T14:18:32.099Z,26.18
2022-08-29T14:23:36.528Z,27.12
2022-08-29T14:28:42.134Z,25.80
2022-08-29T14:33:51.618Z,26.15
2022-08-29T14:38:55.371Z,31.73
2022-08-29T14:43:59.401Z,36.00
2022-08-29T14:49:03.424Z,38.44
2022-08-29T14:54:06.737Z,40.44
2022-08-29T14:59:10.048Z,41.80
2022-08-29T15:04:13.975Z,42.44
2022-08-29T15:09:17.487Z,45.52
2022-08-29T15:14:20.902Z,47.36
2022-08-29T15:20:15.821Z,49.19
2022-08-29T15:24:50.353Z,48.60
2022-08-29T15:29:53.979Z,48.47
2022-08-29T15:34:57.799Z,49.47
2022-08-29T15:40:01.237Z,50.42
2022-08-29T15:45:08.227Z,46.72
2022-08-29T15:50:11.627Z,40.47
2022-08-29T15:55:15.006Z,35.47
2022-08-29T16:00:29.610Z,31.12
2022-08-29T16:05:36.422Z,28.42
2022-08-29T16:11:49.754Z,26.71
2022-08-29T16:16:52.963Z,24.89
2022-08-29T16:22:00.277Z,23.92
2022-08-29T16:27:04.707Z,23.22
2022-08-29T16:32:08.937Z,22.51
2022-08-29T16:37:12.455Z,22.08
2022-08-29T16:42:16.173Z,21.75
2022-08-29T16:47:19.691Z,21.58
2022-08-29T16:52:23.160Z,21.63
2022-08-29T16:57:26.925Z,21.78
2022-08-29T17:02:30.375Z,22.06
2022-08-29T17:07:33.754Z,22.11
2022-08-29T17:12:36.960Z,22.05
2022-08-29T17:17:40.787Z,22.40
2022-08-29T17:22:44.093Z,22.34
2022-08-29T17:28:14.321Z,21.77
2022-08-29T17:33:12.117Z,21.28
2022-08-29T17:38:16.445Z,20.92
2022-08-29T17:43:20.070Z,20.63
2022-08-29T17:48:23.791Z,20.43
2022-08-29T17:53:27.307Z,20.24
2022-08-29T17:58:30.823Z,20.11
2022-08-29T18:03:34.202Z,20.01
2022-08-29T18:08:38.575Z,19.89
2022-08-29T18:13:43.422Z,19.80
2022-08-29T18:18:49.993Z,19.68
2022-08-29T18:23:54.237Z,19.58
2022-08-29T18:29:00.620Z,19.43
2022-08-29T18:34:04.446Z,19.26
2022-08-29T18:39:09.599Z,19.18
2022-08-29T18:44:13.009Z,19.12
2022-08-29T18:49:17.864Z,19.11
2022-08-29T18:54:25.232Z,19.07
2022-08-29T18:59:30.623Z,19.01
2022-08-29T19:04:33.932Z,18.91
2022-08-29T19:09:37.449Z,18.82
2022-08-29T19:14:46.153Z,18.73
2022-08-29T19:20:10.216Z,18.63
2022-08-29T19:25:14.416Z,18.54
2022-08-29T19:30:18.748Z,18.45
2022-08-29T19:35:23.803Z,18.36
2022-08-29T19:40:28.146Z,18.33
2022-08-29T19:45:32.107Z,18.26
2022-08-29T19:50:36.298Z,18.19
2022-08-29T19:55:40.836Z,18.14
2022-08-29T20:00:46.067Z,18.09
2022-08-29T20:05:49.605Z,17.99
2022-08-29T20:10:53.738Z,17.90
2022-08-29T20:15:57.098Z,17.85
2022-08-29T20:21:00.868Z,17.82
2022-08-29T20:26:04.489Z,17.81
2022-08-29T20:31:08.359Z,17.75
2022-08-29T20:36:31.284Z,17.67
2022-08-29T20:41:34.696Z,17.57
2022-08-29T20:46:40.738Z,17.48
2022-08-29T20:51:44.799Z,17.37
2022-08-29T20:56:48.926Z,17.31
2022-08-29T21:01:52.937Z,17.24
2022-08-29T21:07:02.165Z,17.16
2022-08-29T21:12:07.671Z,17.09
2022-08-29T21:17:12.413Z,17.07
2022-08-29T21:22:16.082Z,17.05
2022-08-29T21:27:20.057Z,17.04
2022-08-29T21:32:23.675Z,16.99
2022-08-29T21:37:27.300Z,16.91
2022-08-29T21:42:30.910Z,16.89
2022-08-29T21:47:34.223Z,16.86
2022-08-29T21:52:37.946Z,16.81
2022-08-29T21:57:53.545Z,16.75
2022-08-29T22:02:58.246Z,16.69
2022-08-29T22:08:04.564Z,16.62
2022-08-29T22:13:09.087Z,16.57
2022-08-29T22:18:15.185Z,16.57
2022-08-29T22:23:20.204Z,16.56
2022-08-29T22:28:23.855Z,16.65
2022-08-29T22:33:27.161Z,16.72
2022-08-29T22:38:31.804Z,16.75
2022-08-29T22:43:35.319Z,16.78
2022-08-29T22:48:39.729Z,16.80
2022-08-29T22:54:03.957Z,16.81
2022-08-29T22:59:07.371Z,16.89
2022-08-29T23:04:12.167Z,16.94
2022-08-29T23:09:16.557Z,16.93
2022-08-29T23:14:20.994Z,16.96
2022-08-29T23:19:24.402Z,17.00
2022-08-29T23:24:28.121Z,17.04
2022-08-29T23:29:33.275Z,17.07
2022-08-29T23:34:38.840Z,17.11
2022-08-29T23:39:42.149Z,17.13
2022-08-29T23:44:48.507Z,17.06
2022-08-29T23:49:52.258Z,17.01
2022-08-29T23:54:55.770Z,16.92
